createdAt,value
2023-05-05T00:01:33.329Z,72.90
2023-05-05T00:04:00.437Z,72.90
2023-05-05T00:06:28.693Z,73.00
2023-05-05T00:08:56.248Z,73.20
2023-05-05T00:11:23.701Z,73.40
2023-05-05T00:13:51.618Z,73.50
2023-05-05T00:16:18.848Z,73.70
2023-05-05T00:18:45.782Z,73.80
2023-05-05T00:21:13.133Z,73.80
2023-05-05T00:23:40.118Z,73.80
2023-05-05T00:26:07.227Z,73.90
2023-05-05T00:28:34.223Z,74.00
2023-05-05T00:31:01.731Z,74.10
2023-05-05T00:33:28.924Z,74.20
2023-05-05T00:35:56.003Z,74.30
2023-05-05T00:38:23.402Z,74.40
2023-05-05T00:40:50.735Z,74.50
2023-05-05T00:43:17.821Z,74.50
2023-05-05T00:45:47.801Z,74.70
2023-05-05T00:48:17.069Z,74.80
2023-05-05T00:50:45.109Z,74.90
2023-05-05T00:53:12.494Z,75.00
2023-05-05T00:55:40.528Z,75.10
2023-05-05T00:58:08.060Z,75.20
2023-05-05T01:00:35.167Z,75.40
2023-05-05T01:03:03.349Z,75.50
2023-05-05T01:05:45.478Z,75.50
2023-05-05T01:08:49.525Z,75.60
2023-05-05T01:11:23.653Z,75.80
2023-05-05T01:14:06.355Z,75.90
2023-05-05T01:16:36.211Z,75.90
2023-05-05T01:19:31.178Z,76.00
2023-05-05T01:22:02.518Z,76.10
2023-05-05T01:25:03.697Z,76.10
2023-05-05T01:27:38.916Z,76.30
2023-05-05T01:30:10.988Z,76.40
2023-05-05T01:32:47.939Z,76.50
2023-05-05T01:35:28.065Z,76.60
2023-05-05T01:38:08.306Z,76.70
2023-05-05T01:40:44.801Z,76.70
2023-05-05T01:43:15.097Z,76.80
2023-05-05T01:45:44.726Z,77.00
2023-05-05T01:48:15.352Z,77.00
2023-05-05T01:50:43.677Z,77.10
2023-05-05T01:53:11.714Z,77.10
2023-05-05T01:55:40.689Z,77.00
2023-05-05T01:58:11.070Z,77.00
2023-05-05T02:00:38.768Z,76.90
2023-05-05T02:03:08.578Z,76.80
2023-05-05T02:05:38.719Z,76.70
2023-05-05T02:08:06.573Z,76.70
2023-05-05T02:10:34.248Z,76.50
2023-05-05T02:13:02.967Z,76.40
2023-05-05T02:15:30.840Z,76.20
2023-05-05T02:18:00.432Z,76.10
2023-05-05T02:20:31.090Z,76.10
2023-05-05T02:22:58.854Z,76.00
2023-05-05T02:26:02.310Z,75.90
2023-05-05T02:28:52.676Z,75.70
2023-05-05T02:31:22.822Z,75.60
2023-05-05T02:33:52.737Z,75.60
2023-05-05T02:36:22.527Z,75.60
2023-05-05T02:39:04.741Z,75.80
2023-05-05T02:41:39.484Z,75.90
2023-05-05T02:44:14.892Z,76.00
2023-05-05T02:46:43.236Z,76.00
2023-05-05T02:49:10.385Z,76.00
2023-05-05T02:51:39.159Z,76.00
2023-05-05T02:54:11.952Z,76.00
2023-05-05T02:56:49.581Z,76.10
2023-05-05T02:59:29.436Z,76.10
2023-05-05T03:02:28.755Z,76.10
2023-05-05T03:05:12.971Z,76.00
2023-05-05T03:08:04.069Z,76.00
2023-05-05T03:10:41.097Z,75.80
2023-05-05T03:13:11.614Z,75.80
2023-05-05T03:15:49.708Z,75.70
2023-05-05T03:18:21.296Z,75.60
2023-05-05T03:20:55.134Z,75.50
2023-05-05T03:23:22.912Z,75.50
2023-05-05T03:25:55.087Z,75.40
2023-05-05T03:28:39.149Z,75.30
2023-05-05T03:31:15.185Z,75.20
2023-05-05T03:33:42.459Z,75.30
2023-05-05T03:36:10.724Z,75.30
2023-05-05T03:38:38.285Z,75.30
2023-05-05T03:41:05.711Z,75.40
2023-05-05T03:43:33.259Z,75.50
2023-05-05T03:46:00.381Z,75.50
2023-05-05T03:48:28.571Z,75.30
2023-05-05T03:50:55.594Z,75.30
2023-05-05T03:53:24.337Z,75.30
2023-05-05T03:55:52.494Z,75.30
2023-05-05T03:58:19.691Z,75.30
2023-05-05T04:00:46.785Z,75.30
2023-05-05T04:03:13.955Z,75.30
2023-05-05T04:05:40.990Z,75.30
2023-05-05T04:08:08.449Z,75.30
2023-05-05T04:10:35.432Z,75.50
2023-05-05T04:13:02.636Z,75.60
2023-05-05T04:15:31.188Z,75.70
2023-05-05T04:17:58.401Z,75.80
2023-05-05T04:20:26.413Z,75.90
2023-05-05T04:22:54.377Z,75.90
2023-05-05T04:25:22.542Z,75.90
2023-05-05T04:27:50.235Z,76.00
2023-05-05T04:30:18.044Z,76.00
2023-05-05T04:32:45.766Z,76.10
2023-05-05T04:35:13.074Z,76.30
2023-05-05T04:37:40.568Z,76.40
2023-05-05T04:40:09.292Z,76.40
2023-05-05T04:42:37.724Z,76.40
2023-05-05T04:45:05.337Z,76.40
2023-05-05T04:47:33.019Z,76.40
2023-05-05T04:50:01.039Z,76.50
2023-05-05T04:52:28.741Z,76.40
2023-05-05T04:54:55.767Z,76.40
2023-05-05T04:57:22.770Z,76.50
2023-05-05T04:59:49.902Z,76.70
2023-05-05T05:02:17.504Z,76.90
2023-05-05T05:04:44.436Z,77.00
2023-05-05T05:07:11.843Z,77.20
2023-05-05T05:09:39.122Z,77.30
2023-05-05T05:12:07.997Z,77.40
2023-05-05T05:14:39.532Z,77.50
2023-05-05T05:17:06.955Z,77.70
2023-05-05T05:19:34.632Z,77.80
2023-05-05T05:22:02.248Z,78.00
2023-05-05T05:24:31.105Z,78.10
2023-05-05T05:26:58.757Z,78.20
2023-05-05T05:29:27.175Z,78.30
2023-05-05T05:31:54.977Z,78.40
2023-05-05T05:34:22.786Z,78.50
2023-05-05T05:36:50.801Z,78.60
2023-05-05T05:39:18.141Z,78.70
2023-05-05T05:41:45.360Z,78.70
2023-05-05T05:44:12.642Z,78.70
2023-05-05T05:46:39.829Z,78.70
2023-05-05T05:49:07.024Z,78.80
2023-05-05T05:51:34.091Z,78.80
2023-05-05T05:54:01.853Z,78.80
2023-05-05T05:56:31.395Z,78.80
2023-05-05T05:58:58.453Z,78.80
2023-05-05T06:01:25.641Z,78.80
2023-05-05T06:03:52.977Z,78.90
2023-05-05T06:06:21.157Z,78.90
2023-05-05T06:08:48.183Z,79.00
2023-05-05T06:11:15.318Z,79.20
2023-05-05T06:13:42.480Z,79.30
2023-05-05T06:16:09.668Z,79.40
2023-05-05T06:18:38.036Z,79.50
2023-05-05T06:21:05.823Z,79.50
2023-05-05T06:23:33.157Z,79.60
2023-05-05T06:26:04.148Z,79.60
2023-05-05T06:28:31.226Z,79.70
2023-05-05T06:30:58.205Z,79.70
2023-05-05T06:33:25.192Z,79.70
2023-05-05T06:35:52.666Z,79.80
2023-05-05T06:38:19.987Z,79.90
2023-05-05T06:40:50.112Z,79.80
2023-05-05T06:43:17.932Z,79.80
2023-05-05T06:45:52.154Z,79.80
2023-05-05T06:48:19.228Z,79.80
2023-05-05T06:50:46.235Z,79.80
2023-05-05T06:53:13.355Z,79.80
2023-05-05T06:55:44.861Z,79.80
2023-05-05T06:58:12.234Z,79.80
2023-05-05T07:00:42.308Z,79.80
2023-05-05T07:03:09.508Z,79.80
2023-05-05T07:05:36.875Z,79.70
2023-05-05T07:08:03.938Z,79.50
2023-05-05T07:10:34.058Z,79.50
2023-05-05T07:13:01.216Z,79.50
2023-05-05T07:15:29.634Z,79.40
2023-05-05T07:17:57.674Z,79.40
2023-05-05T07:20:25.241Z,79.40
2023-05-05T07:22:52.369Z,79.30
2023-05-05T07:25:19.579Z,79.30
2023-05-05T07:27:46.866Z,79.20
2023-05-05T07:30:18.117Z,79.20
2023-05-05T07:32:46.181Z,79.20
2023-05-05T07:35:13.782Z,79.20
2023-05-05T07:37:40.921Z,79.10
2023-05-05T07:40:09.046Z,79.10
2023-05-05T07:42:36.301Z,79.10
2023-05-05T07:45:04.016Z,79.10
2023-05-05T07:47:31.249Z,79.00
2023-05-05T07:49:58.581Z,79.00
2023-05-05T07:52:43.365Z,79.00
2023-05-05T07:55:12.942Z,79.10
2023-05-05T07:57:40.077Z,79.00
2023-05-05T08:00:08.163Z,79.00
2023-05-05T08:02:44.720Z,78.90
2023-05-05T08:05:12.715Z,78.90
2023-05-05T08:07:41.531Z,78.80
2023-05-05T08:10:12.400Z,78.70
2023-05-05T08:12:39.938Z,78.60
2023-05-05T08:15:07.807Z,78.60
2023-05-05T08:17:49.732Z,78.50
2023-05-05T08:20:18.254Z,78.50
2023-05-05T08:22:46.904Z,78.40
2023-05-05T08:25:14.690Z,78.40
2023-05-05T08:27:43.029Z,78.30
2023-05-05T08:30:10.859Z,78.30
2023-05-05T08:32:38.708Z,78.40
2023-05-05T08:35:07.432Z,78.40
2023-05-05T08:37:34.756Z,78.40
2023-05-05T08:40:01.895Z,78.30
2023-05-05T08:42:38.065Z,78.20
2023-05-05T08:45:06.907Z,78.20
2023-05-05T08:47:35.645Z,78.20
2023-05-05T08:50:03.746Z,78.30
2023-05-05T08:52:39.404Z,78.50
2023-05-05T08:55:22.286Z,78.60
2023-05-05T08:57:57.909Z,78.80
2023-05-05T09:00:27.177Z,79.00
2023-05-05T09:02:58.340Z,79.10
2023-05-05T09:05:26.827Z,79.20
2023-05-05T09:07:54.845Z,79.30
2023-05-05T09:10:22.141Z,79.50
2023-05-05T09:12:51.297Z,79.60
2023-05-05T09:15:18.684Z,79.60
2023-05-05T09:17:45.909Z,79.80
2023-05-05T09:20:14.596Z,79.90
2023-05-05T09:22:43.640Z,80.00
2023-05-05T09:25:15.664Z,80.10
2023-05-05T09:27:48.016Z,80.10
2023-05-05T09:30:26.984Z,80.00
2023-05-05T09:32:55.197Z,80.00
2023-05-05T09:35:23.522Z,80.00
2023-05-05T09:37:50.603Z,79.90
2023-05-05T09:40:19.288Z,79.90
2023-05-05T09:42:46.802Z,80.00
2023-05-05T09:45:19.732Z,80.00
2023-05-05T09:47:47.860Z,80.20
2023-05-05T09:50:18.516Z,80.20
2023-05-05T09:52:59.742Z,80.00
2023-05-05T09:55:27.253Z,79.80
2023-05-05T09:57:54.425Z,79.70
2023-05-05T10:00:21.829Z,79.80
2023-05-05T10:02:48.839Z,79.80
2023-05-05T10:05:17.890Z,79.80
2023-05-05T10:07:47.043Z,79.70
2023-05-05T10:10:18.539Z,79.70
2023-05-05T10:12:50.092Z,79.60
2023-05-05T10:15:18.714Z,79.60
2023-05-05T10:18:05.798Z,79.60
2023-05-05T10:20:38.658Z,79.80
2023-05-05T10:23:08.234Z,79.80
2023-05-05T10:25:46.549Z,79.70
2023-05-05T10:28:19.412Z,79.60
2023-05-05T10:30:51.263Z,79.40
2023-05-05T10:33:32.182Z,79.20
2023-05-05T10:36:02.554Z,79.00
2023-05-05T10:38:34.026Z,78.80
2023-05-05T10:41:02.250Z,78.50
2023-05-05T10:43:31.476Z,78.20
2023-05-05T10:45:59.508Z,78.00
2023-05-05T10:48:49.436Z,77.70
2023-05-05T10:51:40.927Z,77.80
2023-05-05T10:54:11.421Z,78.00
2023-05-05T10:56:41.331Z,77.60
2023-05-05T10:59:40.821Z,76.90
2023-05-05T11:02:21.424Z,76.10
2023-05-05T11:05:14.442Z,75.90
2023-05-05T11:07:51.597Z,75.50
2023-05-05T11:10:20.779Z,74.90
2023-05-05T11:12:59.308Z,73.70
2023-05-05T11:15:31.645Z,73.20
2023-05-05T11:18:01.965Z,72.50
2023-05-05T11:20:36.170Z,72.10
2023-05-05T11:23:03.331Z,70.60
2023-05-05T11:25:40.776Z,70.50
2023-05-05T11:28:19.278Z,71.00
2023-05-05T11:30:58.686Z,70.40
2023-05-05T11:33:29.282Z,70.00
2023-05-05T11:36:09.913Z,69.30
2023-05-05T11:38:55.779Z,68.80
2023-05-05T11:41:34.092Z,67.80
2023-05-05T11:44:17.131Z,67.90
2023-05-05T11:46:54.017Z,67.80
2023-05-05T11:49:32.177Z,67.40
2023-05-05T11:52:00.953Z,66.20
2023-05-05T11:54:28.935Z,66.00
2023-05-05T11:57:08.481Z,65.90
2023-05-05T11:59:55.304Z,65.90
2023-05-05T12:02:23.373Z,65.80
2023-05-05T12:04:51.325Z,65.50
2023-05-05T12:07:20.214Z,65.60
2023-05-05T12:09:49.059Z,65.90
2023-05-05T12:12:16.804Z,66.20
2023-05-05T12:14:53.185Z,66.40
2023-05-05T12:17:21.885Z,66.40
2023-05-05T12:19:51.669Z,66.00
2023-05-05T12:22:21.374Z,66.00
2023-05-05T12:24:59.846Z,65.20
2023-05-05T12:27:28.242Z,65.40
2023-05-05T12:29:56.926Z,65.80
2023-05-05T12:32:30.598Z,66.40
2023-05-05T12:34:57.728Z,66.60
2023-05-05T12:37:26.318Z,66.40
2023-05-05T12:39:56.766Z,66.00
2023-05-05T12:42:23.887Z,65.40
2023-05-05T12:44:51.007Z,65.30
2023-05-05T12:47:33.603Z,65.30
2023-05-05T12:50:03.001Z,65.40
2023-05-05T12:52:44.203Z,65.40
2023-05-05T12:55:11.735Z,65.40
2023-05-05T12:57:58.012Z,65.40
2023-05-05T13:00:25.764Z,65.60
2023-05-05T13:02:53.269Z,65.80
2023-05-05T13:05:34.108Z,65.90
2023-05-05T13:08:01.108Z,66.00
2023-05-05T13:10:28.473Z,66.10
2023-05-05T13:12:56.902Z,66.10
2023-05-05T13:15:27.629Z,66.30
2023-05-05T13:18:01.614Z,66.50
2023-05-05T13:20:29.320Z,66.90
2023-05-05T13:22:56.351Z,67.20
2023-05-05T13:25:23.484Z,67.50
2023-05-05T13:27:50.455Z,67.80
2023-05-05T13:30:17.553Z,68.10
2023-05-05T13:32:44.555Z,68.50
2023-05-05T13:35:13.947Z,68.80
2023-05-05T13:37:42.620Z,69.00
2023-05-05T13:40:10.483Z,69.30
2023-05-05T13:42:37.465Z,69.60
2023-05-05T13:45:05.588Z,70.00
2023-05-05T13:47:32.808Z,70.30
2023-05-05T13:49:59.793Z,70.30
2023-05-05T13:52:27.591Z,70.10
2023-05-05T13:54:56.046Z,70.00
2023-05-05T13:57:23.347Z,69.90
2023-05-05T13:59:50.375Z,69.80
2023-05-05T14:02:17.527Z,69.90
2023-05-05T14:04:44.586Z,70.10
2023-05-05T14:07:11.954Z,70.10
2023-05-05T14:09:38.983Z,70.30
2023-05-05T14:12:06.249Z,70.50
2023-05-05T14:14:34.380Z,70.70
2023-05-05T14:17:01.543Z,71.10
2023-05-05T14:19:28.528Z,71.50
2023-05-05T14:21:55.627Z,71.80
2023-05-05T14:24:22.582Z,72.00
2023-05-05T14:26:49.598Z,72.20
2023-05-05T14:29:16.597Z,72.60
2023-05-05T14:31:43.668Z,72.80
2023-05-05T14:34:10.630Z,73.10
2023-05-05T14:36:37.630Z,73.40
2023-05-05T14:39:04.649Z,73.50
2023-05-05T14:41:31.635Z,73.60
2023-05-05T14:43:59.246Z,73.80
2023-05-05T14:46:27.430Z,73.90
2023-05-05T14:48:54.426Z,74.00
2023-05-05T14:51:21.420Z,74.10
2023-05-05T14:53:48.484Z,74.20
2023-05-05T14:56:15.640Z,74.60
2023-05-05T14:58:42.879Z,74.90
2023-05-05T15:01:09.934Z,75.30
2023-05-05T15:03:37.219Z,75.70
2023-05-05T15:06:05.315Z,76.10
2023-05-05T15:08:32.314Z,76.60
2023-05-05T15:10:59.313Z,76.70
2023-05-05T15:13:26.503Z,76.50
2023-05-05T15:15:53.527Z,76.10
2023-05-05T15:18:20.539Z,75.60
2023-05-05T15:20:47.654Z,75.00
2023-05-05T15:23:14.720Z,74.60
2023-05-05T15:25:41.755Z,74.00
2023-05-05T15:28:08.760Z,73.40
2023-05-05T15:30:35.981Z,73.00
2023-05-05T15:33:03.029Z,72.30
2023-05-05T15:35:30.065Z,72.00
2023-05-05T15:37:57.074Z,71.60
2023-05-05T15:40:24.172Z,71.10
2023-05-05T15:42:51.485Z,70.00
2023-05-05T15:45:18.595Z,69.30
2023-05-05T15:47:46.268Z,68.90
2023-05-05T15:50:14.153Z,68.40
2023-05-05T15:52:41.131Z,68.40
2023-05-05T15:55:09.121Z,68.10
2023-05-05T15:57:36.726Z,67.80
2023-05-05T16:00:04.748Z,67.60
2023-05-05T16:02:34.606Z,67.20
2023-05-05T16:05:01.759Z,66.90
2023-05-05T16:07:28.738Z,66.60
2023-05-05T16:09:56.790Z,66.10
2023-05-05T16:12:23.702Z,65.80
2023-05-05T16:14:50.828Z,65.50
2023-05-05T16:17:17.808Z,65.40
2023-05-05T16:19:44.863Z,65.00
2023-05-05T16:22:11.903Z,64.60
2023-05-05T16:24:38.936Z,63.90
2023-05-05T16:27:06.083Z,63.70
2023-05-05T16:29:33.117Z,63.60
2023-05-05T16:32:00.079Z,63.50
2023-05-05T16:34:27.142Z,63.30
2023-05-05T16:36:54.093Z,63.00
2023-05-05T16:39:21.337Z,62.50
2023-05-05T16:41:48.290Z,62.40
2023-05-05T16:44:15.841Z,62.50
2023-05-05T16:46:42.912Z,62.50
2023-05-05T16:49:09.968Z,62.60
2023-05-05T16:51:36.957Z,62.70
2023-05-05T16:54:04.060Z,62.80
2023-05-05T16:56:30.991Z,62.80
2023-05-05T16:58:58.131Z,63.00
2023-05-05T17:01:25.147Z,63.30
2023-05-05T17:03:52.194Z,63.80
2023-05-05T17:06:19.436Z,64.00
2023-05-05T17:08:46.385Z,64.30
2023-05-05T17:11:13.443Z,64.80
2023-05-05T17:13:40.835Z,65.20
2023-05-05T17:16:07.971Z,65.40
2023-05-05T17:18:35.125Z,65.80
2023-05-05T17:21:02.048Z,66.10
2023-05-05T17:23:29.069Z,66.30
2023-05-05T17:25:56.004Z,66.60
2023-05-05T17:28:23.054Z,66.70
2023-05-05T17:30:50.057Z,66.90
2023-05-05T17:33:20.849Z,67.10
2023-05-05T17:35:48.442Z,67.30
2023-05-05T17:38:15.629Z,67.50
2023-05-05T17:40:43.045Z,67.80
2023-05-05T17:43:10.018Z,68.10
2023-05-05T17:45:37.063Z,68.40
2023-05-05T17:48:04.204Z,68.80
2023-05-05T17:50:31.272Z,69.00
2023-05-05T17:52:58.216Z,69.30
2023-05-05T17:55:25.264Z,69.50
2023-05-05T17:57:52.345Z,69.70
2023-05-05T18:00:20.094Z,69.90
2023-05-05T18:02:53.231Z,70.00
2023-05-05T18:05:20.906Z,70.20
2023-05-05T18:07:47.946Z,70.30
2023-05-05T18:10:15.189Z,70.40
2023-05-05T18:12:42.179Z,70.50
2023-05-05T18:15:09.737Z,70.60
2023-05-05T18:17:37.535Z,70.80
2023-05-05T18:20:06.961Z,70.90
2023-05-05T18:22:34.381Z,71.00
2023-05-05T18:25:01.481Z,71.20
2023-05-05T18:27:29.373Z,71.40
2023-05-05T18:29:56.354Z,71.70
2023-05-05T18:32:23.920Z,72.00
2023-05-05T18:34:50.934Z,72.20
2023-05-05T18:37:17.976Z,72.50
2023-05-05T18:39:45.298Z,72.90
2023-05-05T18:42:13.103Z,73.10
2023-05-05T18:44:40.242Z,73.30
2023-05-05T18:47:07.965Z,73.50
2023-05-05T18:49:36.772Z,73.60
2023-05-05T18:52:04.244Z,73.80
2023-05-05T18:54:31.293Z,74.00
2023-05-05T18:56:59.380Z,74.20
2023-05-05T18:59:26.391Z,74.40
2023-05-05T19:01:53.433Z,74.50
2023-05-05T19:04:30.844Z,74.70
2023-05-05T19:06:59.147Z,74.90
2023-05-05T19:09:26.169Z,75.10
2023-05-05T19:11:53.251Z,75.30
2023-05-05T19:14:20.344Z,75.50
2023-05-05T19:16:47.648Z,75.80
2023-05-05T19:19:14.985Z,75.90
2023-05-05T19:21:42.073Z,76.00
2023-05-05T19:24:09.804Z,76.20
2023-05-05T19:26:36.859Z,76.40
2023-05-05T19:29:03.889Z,76.60
2023-05-05T19:31:31.396Z,76.70
2023-05-05T19:34:01.256Z,76.80
2023-05-05T19:36:29.023Z,76.90
2023-05-05T19:38:58.806Z,77.00
2023-05-05T19:41:26.290Z,77.10
2023-05-05T19:43:53.363Z,77.20
2023-05-05T19:46:20.775Z,77.30
2023-05-05T19:48:47.939Z,77.40
2023-05-05T19:51:15.033Z,77.50
2023-05-05T19:53:42.957Z,77.50
2023-05-05T19:56:10.362Z,77.60
2023-05-05T19:58:57.513Z,77.70
2023-05-05T20:01:25.300Z,77.80
2023-05-05T20:03:53.490Z,77.90
2023-05-05T20:06:21.157Z,78.10
2023-05-05T20:08:48.283Z,78.20
2023-05-05T20:11:16.913Z,78.40
2023-05-05T20:13:44.121Z,78.50
2023-05-05T20:16:11.875Z,78.60
2023-05-05T20:18:39.749Z,78.70
2023-05-05T20:21:07.089Z,78.70
2023-05-05T20:23:34.226Z,78.80
2023-05-05T20:26:01.713Z,78.90
2023-05-05T20:28:28.812Z,78.90
2023-05-05T20:30:55.818Z,78.90
2023-05-05T20:33:22.873Z,78.90
2023-05-05T20:35:49.855Z,78.90
2023-05-05T20:38:17.146Z,78.90
2023-05-05T20:40:44.138Z,78.90
2023-05-05T20:43:11.176Z,79.00
2023-05-05T20:45:38.270Z,79.00
2023-05-05T20:48:07.446Z,79.10
2023-05-05T20:50:40.828Z,79.20
2023-05-05T20:53:09.002Z,79.20
2023-05-05T20:55:36.004Z,79.20
2023-05-05T20:58:04.602Z,79.20
2023-05-05T21:00:31.585Z,79.40
2023-05-05T21:02:58.925Z,79.50
2023-05-05T21:05:26.134Z,79.60
2023-05-05T21:07:54.377Z,79.70
2023-05-05T21:10:21.558Z,79.80
2023-05-05T21:12:48.641Z,79.80
2023-05-05T21:15:16.716Z,79.70
2023-05-05T21:17:43.986Z,79.60
2023-05-05T21:20:11.661Z,79.50
2023-05-05T21:22:38.998Z,79.50
2023-05-05T21:25:24.295Z,79.40
2023-05-05T21:27:51.270Z,79.30
2023-05-05T21:30:18.395Z,79.20
2023-05-05T21:32:45.595Z,79.10
2023-05-05T21:35:12.640Z,79.00
2023-05-05T21:37:40.217Z,79.00
2023-05-05T21:40:11.447Z,79.00
2023-05-05T21:42:38.698Z,79.00
2023-05-05T21:45:06.169Z,79.00
2023-05-05T21:47:33.314Z,79.00
2023-05-05T21:50:00.310Z,79.00
2023-05-05T21:52:27.333Z,78.90
2023-05-05T21:54:54.369Z,79.00
2023-05-05T21:57:21.393Z,79.00
2023-05-05T21:59:48.698Z,79.00
2023-05-05T22:02:15.796Z,78.90
2023-05-05T22:04:46.026Z,78.80
2023-05-05T22:07:12.992Z,78.70
2023-05-05T22:09:40.003Z,78.70
2023-05-05T22:12:07.024Z,78.60
2023-05-05T22:14:33.978Z,78.60
2023-05-05T22:17:01.114Z,78.60
2023-05-05T22:19:28.079Z,78.60
2023-05-05T22:21:55.061Z,78.50
2023-05-05T22:24:22.006Z,78.50
2023-05-05T22:26:49.032Z,78.50
2023-05-05T22:29:15.982Z,78.40
2023-05-05T22:31:43.087Z,78.40
2023-05-05T22:34:10.062Z,78.30
2023-05-05T22:36:37.059Z,78.30
2023-05-05T22:39:04.148Z,78.30
2023-05-05T22:41:31.128Z,78.30
2023-05-05T22:43:58.076Z,78.40
2023-05-05T22:46:25.129Z,78.50
2023-05-05T22:48:52.893Z,78.60
2023-05-05T22:51:20.391Z,78.60
2023-05-05T22:53:47.418Z,78.60
2023-05-05T22:56:14.481Z,78.60
2023-05-05T22:58:41.457Z,78.70
2023-05-05T23:01:08.737Z,78.90
2023-05-05T23:03:35.848Z,79.00
2023-05-05T23:06:02.840Z,79.10
2023-05-05T23:08:29.825Z,79.20
2023-05-05T23:10:56.831Z,79.20
2023-05-05T23:13:23.887Z,79.20
2023-05-05T23:15:50.940Z,79.20
2023-05-05T23:18:17.874Z,79.20
2023-05-05T23:20:44.946Z,79.20
2023-05-05T23:23:11.890Z,79.10
2023-05-05T23:25:38.906Z,79.00
2023-05-05T23:28:06.022Z,78.80
2023-05-05T23:30:33.086Z,78.70
2023-05-05T23:33:01.259Z,78.60
2023-05-05T23:35:28.350Z,78.60
2023-05-05T23:37:55.401Z,78.50
2023-05-05T23:40:22.564Z,78.50
2023-05-05T23:42:49.521Z,78.40
2023-05-05T23:45:19.231Z,78.40
2023-05-05T23:47:46.527Z,78.40
2023-05-05T23:50:13.502Z,78.30
2023-05-05T23:52:41.834Z,78.20
2023-05-05T23:55:10.219Z,78.10
2023-05-05T23:57:37.501Z,78.00
